Kingman Township, Maine
Current Conditions -  °F | °C
As of 1:53 AM on Saturday 25 Oct 2014 (Local Time) from KMLT Reporting Station
Overcast Overcast  
Wind Chill: 40°   Ceiling: 1900
Heat Index: 45°   Visibility: 10mi
Dew Point: 40°   Wind: 10mph
Humidity: 82%   Direction: 350°N
Pressure: 29.65"   Gusts: NA
Location:  45.6117°N, 68.2294°W
Report Text: KMLT 250553Z AUTO 35009KT 10SM OVC019 07/04 A2965 RMK AO2 SLP047 60003 T00720044 10078 20061 56008
Loading
Personal Weather Stations






























Interactive Weather Map
Tropical Storm Tracking
New forecast layout! Learn more

10-Day Weather Forecast

Advertisements
Track Severe Weather on mobile